createdAt,value
2019-01-12T00:02:15.886Z,6.10
2019-01-12T00:04:46.724Z,5.80
2019-01-12T00:07:16.397Z,5.00
2019-01-12T00:09:46.115Z,5.07
2019-01-12T00:12:15.776Z,4.17
2019-01-12T00:14:45.750Z,4.40
2019-01-12T00:17:15.576Z,4.33
2019-01-12T00:19:45.235Z,4.03
2019-01-12T00:22:16.282Z,3.23
2019-01-12T00:24:45.947Z,4.30
2019-01-12T00:27:16.785Z,3.17
2019-01-12T00:29:46.438Z,3.80
2019-01-12T00:32:19.750Z,3.57
2019-01-12T00:34:49.398Z,2.87
2019-01-12T00:37:19.088Z,2.90
2019-01-12T00:39:48.812Z,3.00
2019-01-12T00:42:18.493Z,2.80
2019-01-12T00:44:49.511Z,2.40
2019-01-12T00:47:19.169Z,2.53
2019-01-12T00:49:48.834Z,2.00
2019-01-12T00:52:18.518Z,2.03
2019-01-12T00:54:48.245Z,2.13
2019-01-12T00:57:17.926Z,2.43
2019-01-12T00:59:47.645Z,2.07
2019-01-12T01:02:17.303Z,2.60
2019-01-12T01:04:47.087Z,2.40
2019-01-12T01:07:16.767Z,2.00
2019-01-12T01:09:46.493Z,2.30
2019-01-12T01:12:16.184Z,2.40
2019-01-12T01:14:45.834Z,2.40
2019-01-12T01:17:15.508Z,1.93
2019-01-12T01:19:45.166Z,2.77
2019-01-12T01:22:14.838Z,1.93
2019-01-12T01:24:45.902Z,2.20
2019-01-12T01:27:14.159Z,2.17
2019-01-12T01:29:43.883Z,2.47
2019-01-12T01:32:13.653Z,2.20
2019-01-12T01:34:43.363Z,2.63
2019-01-12T01:37:13.019Z,2.10
2019-01-12T01:39:42.666Z,1.50
2019-01-12T01:42:12.301Z,1.90
2019-01-12T01:44:41.985Z,1.30
2019-01-12T01:47:11.630Z,1.57
2019-01-12T01:49:41.266Z,2.00
2019-01-12T01:52:10.937Z,1.30
2019-01-12T01:54:40.590Z,1.57
2019-01-12T01:57:10.258Z,1.17
2019-01-12T01:59:39.958Z,1.10
2019-01-12T02:02:09.802Z,1.20
2019-01-12T02:04:39.483Z,1.23
2019-01-12T02:07:09.184Z,1.10
2019-01-12T02:09:38.836Z,1.73
2019-01-12T02:12:08.484Z,1.00
2019-01-12T02:14:38.148Z,1.10
2019-01-12T02:17:07.825Z,1.30
2019-01-12T02:19:37.497Z,1.47
2019-01-12T02:22:07.176Z,1.40
2019-01-12T02:24:36.817Z,1.50
2019-01-12T02:27:06.511Z,1.40
2019-01-12T02:29:36.187Z,1.60
2019-01-12T02:32:05.868Z,1.67
2019-01-12T02:34:35.532Z,1.60
2019-01-12T02:37:05.210Z,1.77
2019-01-12T02:39:34.891Z,1.47
2019-01-12T02:42:04.602Z,1.60
2019-01-12T02:44:34.345Z,1.60
2019-01-12T02:47:03.981Z,1.53
2019-01-12T02:49:33.653Z,1.97
2019-01-12T02:52:03.351Z,1.70
2019-01-12T02:54:33.172Z,1.40
2019-01-12T02:57:02.821Z,1.60
2019-01-12T02:59:32.521Z,1.90
2019-01-12T03:02:02.205Z,2.17
2019-01-12T03:04:31.862Z,1.60
2019-01-12T03:07:01.554Z,1.53
2019-01-12T03:09:31.217Z,1.20
2019-01-12T03:12:00.889Z,1.23
2019-01-12T03:14:30.550Z,1.20
2019-01-12T03:17:00.238Z,1.50
2019-01-12T03:19:29.931Z,1.37
2019-01-12T03:21:59.601Z,1.33
2019-01-12T03:24:29.273Z,1.20
2019-01-12T03:26:58.972Z,1.10
2019-01-12T03:29:28.641Z,1.20
2019-01-12T03:31:58.683Z,1.23
2019-01-12T03:34:28.352Z,1.30
2019-01-12T03:36:58.047Z,1.20
2019-01-12T03:39:27.713Z,1.10
2019-01-12T03:41:57.421Z,1.20
2019-01-12T03:44:27.078Z,1.00
2019-01-12T03:46:56.759Z,1.20
2019-01-12T03:49:26.405Z,1.43
2019-01-12T03:51:56.107Z,1.30
2019-01-12T03:54:25.767Z,1.50
2019-01-12T03:56:55.461Z,1.23
2019-01-12T03:59:25.166Z,1.37
2019-01-12T04:01:54.874Z,1.13
2019-01-12T04:04:24.520Z,1.20
2019-01-12T04:06:54.167Z,1.30
2019-01-12T04:09:23.881Z,1.17
2019-01-12T04:11:53.541Z,1.33
2019-01-12T04:14:23.241Z,1.10
2019-01-12T04:16:52.904Z,1.07
2019-01-12T04:19:22.536Z,1.10
2019-01-12T04:21:52.216Z,0.97
2019-01-12T04:24:23.123Z,3.03
2019-01-12T04:26:52.769Z,1.53
2019-01-12T04:29:22.497Z,1.73
2019-01-12T04:31:52.157Z,1.57
2019-01-12T04:34:21.837Z,1.43
2019-01-12T04:36:51.546Z,0.90
2019-01-12T04:39:21.231Z,1.20
2019-01-12T04:41:51.077Z,1.50
2019-01-12T04:44:20.770Z,1.30
2019-01-12T04:46:50.429Z,1.50
2019-01-12T04:49:20.137Z,1.20
2019-01-12T04:51:49.804Z,1.23
2019-01-12T04:54:19.494Z,1.50
2019-01-12T04:56:49.193Z,1.40
2019-01-12T04:59:18.868Z,1.03
2019-01-12T05:01:48.556Z,1.23
2019-01-12T05:04:18.234Z,1.50
2019-01-12T05:06:47.865Z,1.73
2019-01-12T05:09:17.557Z,1.10
2019-01-12T05:11:47.218Z,1.47
2019-01-12T05:14:17.015Z,1.30
2019-01-12T05:16:46.710Z,1.90
2019-01-12T05:19:16.460Z,1.70
2019-01-12T05:21:46.135Z,1.23
2019-01-12T05:24:15.793Z,1.93
2019-01-12T05:26:45.487Z,1.23
2019-01-12T05:29:15.217Z,1.07
2019-01-12T05:31:44.863Z,1.23
2019-01-12T05:34:14.533Z,1.13
2019-01-12T05:36:44.228Z,1.10
2019-01-12T05:39:13.919Z,1.23
2019-01-12T05:41:45.148Z,1.13
2019-01-12T05:44:16.065Z,1.17
2019-01-12T05:46:47.027Z,1.20
2019-01-12T05:49:16.715Z,1.40
2019-01-12T05:51:46.418Z,1.83
2019-01-12T05:54:16.085Z,1.37
2019-01-12T05:56:45.717Z,1.63
2019-01-12T05:59:15.423Z,1.33
2019-01-12T06:01:45.087Z,1.90
2019-01-12T06:04:14.713Z,2.00
2019-01-12T06:06:45.572Z,1.23
2019-01-12T06:09:15.260Z,1.47
2019-01-12T06:11:44.933Z,1.50
2019-01-12T06:14:14.638Z,1.30
2019-01-12T06:16:44.309Z,1.13
2019-01-12T06:19:13.994Z,2.10
2019-01-12T06:21:44.517Z,1.33
2019-01-12T06:24:14.223Z,1.70
2019-01-12T06:26:43.895Z,1.40
2019-01-12T06:29:13.580Z,1.70
2019-01-12T06:31:43.242Z,1.80
2019-01-12T06:34:14.263Z,1.50
2019-01-12T06:36:43.927Z,1.37
2019-01-12T06:39:13.602Z,1.43
2019-01-12T06:41:43.612Z,1.77
2019-01-12T06:44:13.367Z,3.73
2019-01-12T06:46:44.316Z,1.43
2019-01-12T06:49:13.991Z,2.10
2019-01-12T06:51:43.698Z,1.80
2019-01-12T06:54:13.635Z,1.83
2019-01-12T06:56:43.270Z,1.63
2019-01-12T06:59:13.192Z,2.07
2019-01-12T07:01:42.842Z,1.63
2019-01-12T07:04:12.569Z,2.10
2019-01-12T07:06:43.467Z,1.40
2019-01-12T07:09:13.105Z,1.50
2019-01-12T07:11:42.762Z,1.50
2019-01-12T07:14:12.449Z,2.70
2019-01-12T07:16:42.154Z,1.50
2019-01-12T07:19:12.070Z,1.70
2019-01-12T07:21:43.034Z,1.43
2019-01-12T07:24:16.200Z,1.50
2019-01-12T07:26:48.445Z,1.90
2019-01-12T07:29:18.408Z,1.93
2019-01-12T07:31:48.198Z,2.30
2019-01-12T07:34:17.951Z,1.87
2019-01-12T07:36:47.672Z,1.97
2019-01-12T07:39:17.385Z,1.83
2019-01-12T07:41:48.317Z,2.03
2019-01-12T07:44:18.052Z,1.90
2019-01-12T07:46:47.857Z,1.83
2019-01-12T07:49:17.573Z,3.53
2019-01-12T07:51:47.292Z,2.23
2019-01-12T07:54:18.172Z,2.23
2019-01-12T07:56:50.366Z,2.40
2019-01-12T07:59:20.169Z,2.60
2019-01-12T08:01:51.222Z,2.40
2019-01-12T08:04:21.077Z,1.97
2019-01-12T08:06:52.076Z,2.23
2019-01-12T08:09:22.463Z,2.57
2019-01-12T08:11:52.193Z,2.90
2019-01-12T08:14:21.970Z,2.37
2019-01-12T08:16:52.986Z,2.50
2019-01-12T08:19:22.684Z,2.73
2019-01-12T08:21:52.433Z,3.10
2019-01-12T08:24:22.143Z,3.73
2019-01-12T08:26:51.948Z,3.70
2019-01-12T08:29:24.313Z,2.93
2019-01-12T08:31:54.031Z,3.40
2019-01-12T08:34:23.857Z,3.40
2019-01-12T08:36:53.634Z,3.57
2019-01-12T08:39:23.314Z,2.77
2019-01-12T08:41:53.133Z,3.20
2019-01-12T08:44:22.856Z,3.63
2019-01-12T08:46:52.551Z,3.73
2019-01-12T08:49:22.207Z,3.27
2019-01-12T08:51:53.190Z,3.40
2019-01-12T08:54:22.913Z,3.60
2019-01-12T08:56:52.657Z,3.47
2019-01-12T08:59:23.001Z,4.93
2019-01-12T09:01:52.770Z,3.67
2019-01-12T09:04:22.562Z,4.33
2019-01-12T09:06:52.390Z,3.63
2019-01-12T09:09:22.288Z,5.23
2019-01-12T09:11:51.940Z,4.73
2019-01-12T09:14:21.697Z,4.93
2019-01-12T09:16:51.442Z,5.43
2019-01-12T09:19:21.436Z,7.10
2019-01-12T09:21:54.800Z,6.07
2019-01-12T09:24:24.509Z,6.40
2019-01-12T09:26:54.194Z,7.17
2019-01-12T09:29:23.949Z,6.80
2019-01-12T09:31:54.835Z,6.63
2019-01-12T09:34:25.839Z,7.37
2019-01-12T09:36:55.619Z,6.30
2019-01-12T09:39:25.272Z,5.63
2019-01-12T09:41:56.167Z,6.30
2019-01-12T09:44:25.858Z,6.03
2019-01-12T09:46:56.824Z,6.33
2019-01-12T09:49:26.474Z,5.70
2019-01-12T09:51:56.195Z,5.57
2019-01-12T09:54:25.896Z,5.23
2019-01-12T09:56:55.609Z,4.57
2019-01-12T09:59:26.953Z,4.87
2019-01-12T10:01:55.110Z,4.70
2019-01-12T10:04:26.207Z,4.50
2019-01-12T10:06:57.104Z,4.93
2019-01-12T10:09:28.115Z,5.93
2019-01-12T10:11:57.753Z,6.10
2019-01-12T10:14:27.413Z,5.73
2019-01-12T10:16:57.107Z,5.43
2019-01-12T10:19:26.900Z,6.20
2019-01-12T10:21:57.861Z,5.60
2019-01-12T10:24:28.787Z,6.47
2019-01-12T10:26:58.795Z,5.20
2019-01-12T10:29:28.704Z,5.27
2019-01-12T10:31:58.496Z,4.80
2019-01-12T10:34:29.151Z,5.30
2019-01-12T10:36:59.742Z,5.20
2019-01-12T10:39:29.489Z,4.90
2019-01-12T10:41:59.454Z,5.27
2019-01-12T10:44:30.690Z,5.77
2019-01-12T10:47:00.766Z,6.23
2019-01-12T10:49:31.915Z,5.50
2019-01-12T10:52:01.664Z,7.83
2019-01-12T10:54:31.716Z,7.00
2019-01-12T10:57:05.406Z,6.70
2019-01-12T10:59:33.002Z,6.23
2019-01-12T11:02:02.714Z,6.83
2019-01-12T11:04:32.475Z,8.37
2019-01-12T11:07:03.662Z,6.40
2019-01-12T11:09:33.488Z,6.47
2019-01-12T11:12:05.345Z,6.90
2019-01-12T11:14:35.078Z,7.30
2019-01-12T11:17:04.760Z,8.07
2019-01-12T11:19:35.741Z,7.27
2019-01-12T11:22:05.416Z,7.43
2019-01-12T11:24:35.093Z,6.87
2019-01-12T11:27:05.034Z,6.47
2019-01-12T11:29:34.782Z,6.43
2019-01-12T11:32:04.511Z,7.50
2019-01-12T11:34:35.670Z,6.93
2019-01-12T11:37:05.417Z,6.80
2019-01-12T11:39:39.066Z,6.47
2019-01-12T11:42:08.838Z,6.90
2019-01-12T11:44:38.532Z,6.73
2019-01-12T11:47:08.225Z,6.50
2019-01-12T11:49:39.219Z,7.13
2019-01-12T11:52:08.885Z,6.50
2019-01-12T11:54:38.774Z,6.00
2019-01-12T11:57:08.388Z,6.10
2019-01-12T11:59:38.217Z,6.57
2019-01-12T12:02:07.915Z,6.10
2019-01-12T12:04:40.073Z,6.10
2019-01-12T12:07:09.805Z,5.47
2019-01-12T12:09:39.452Z,5.50
2019-01-12T12:12:09.088Z,6.80
2019-01-12T12:14:38.837Z,6.23
2019-01-12T12:17:09.750Z,7.10
2019-01-12T12:19:41.881Z,6.83
2019-01-12T12:22:11.546Z,7.03
2019-01-12T12:24:41.226Z,5.57
2019-01-12T12:27:12.228Z,5.00
2019-01-12T12:29:41.905Z,5.20
2019-01-12T12:32:11.581Z,5.27
2019-01-12T12:34:41.292Z,5.63
2019-01-12T12:37:10.929Z,5.93
2019-01-12T12:39:40.612Z,7.43
2019-01-12T12:42:10.295Z,8.87
2019-01-12T12:44:39.959Z,7.33
2019-01-12T12:47:09.670Z,7.17
2019-01-12T12:49:39.377Z,6.03
2019-01-12T12:52:09.054Z,5.97
2019-01-12T12:54:38.851Z,5.67
2019-01-12T12:57:08.582Z,4.60
2019-01-12T12:59:38.245Z,5.10
2019-01-12T13:02:10.510Z,4.57
2019-01-12T13:04:40.305Z,6.57
2019-01-12T13:07:10.058Z,6.37
2019-01-12T13:09:40.398Z,7.10
2019-01-12T13:12:10.060Z,5.13
2019-01-12T13:14:39.751Z,6.10
2019-01-12T13:17:09.547Z,5.83
2019-01-12T13:19:39.252Z,6.57
2019-01-12T13:22:08.929Z,6.57
2019-01-12T13:24:38.570Z,6.53
2019-01-12T13:27:08.319Z,7.60
2019-01-12T13:29:37.990Z,8.20
2019-01-12T13:32:07.698Z,7.83
2019-01-12T13:34:37.357Z,7.00
2019-01-12T13:37:08.288Z,7.37
2019-01-12T13:39:38.685Z,7.33
2019-01-12T13:42:09.677Z,9.23
2019-01-12T13:44:39.369Z,7.70
2019-01-12T13:47:09.035Z,7.63
2019-01-12T13:49:39.910Z,7.20
2019-01-12T13:52:09.607Z,7.20
2019-01-12T13:54:39.328Z,8.03
2019-01-12T13:57:09.031Z,7.63
2019-01-12T13:59:38.921Z,7.13
2019-01-12T14:02:08.653Z,7.53
2019-01-12T14:04:38.344Z,7.00
2019-01-12T14:07:07.995Z,7.50
2019-01-12T14:09:37.641Z,7.03
2019-01-12T14:12:07.314Z,6.87
2019-01-12T14:14:36.999Z,6.70
2019-01-12T14:17:06.789Z,7.07
2019-01-12T14:19:37.676Z,7.33
2019-01-12T14:22:07.356Z,7.70
2019-01-12T14:24:37.046Z,7.70
2019-01-12T14:27:06.733Z,8.13
2019-01-12T14:29:37.562Z,7.90
2019-01-12T14:32:07.243Z,6.73
2019-01-12T14:34:39.415Z,7.40
2019-01-12T14:37:09.083Z,7.40
2019-01-12T14:39:41.179Z,6.80
2019-01-12T14:42:10.929Z,7.70
2019-01-12T14:44:42.030Z,6.93
2019-01-12T14:47:11.832Z,6.83
2019-01-12T14:49:42.742Z,7.50
2019-01-12T14:52:14.935Z,9.00
2019-01-12T14:54:44.645Z,8.10
2019-01-12T14:57:15.596Z,11.07
2019-01-12T14:59:45.274Z,9.10
2019-01-12T15:02:15.021Z,7.70
2019-01-12T15:04:44.722Z,16.53
2019-01-12T15:07:14.537Z,11.60
2019-01-12T15:09:44.219Z,15.97
2019-01-12T15:12:13.889Z,8.33
2019-01-12T15:14:43.918Z,10.03
2019-01-12T15:17:13.622Z,8.83
2019-01-12T15:19:43.314Z,9.17
2019-01-12T15:22:13.290Z,10.60
2019-01-12T15:24:42.934Z,8.50
2019-01-12T15:27:12.601Z,11.40
2019-01-12T15:29:42.288Z,8.77
2019-01-12T15:32:11.936Z,12.83
2019-01-12T15:34:41.931Z,8.80
2019-01-12T15:37:11.592Z,9.60
2019-01-12T15:39:42.426Z,9.40
2019-01-12T15:42:12.096Z,10.40
2019-01-12T15:44:41.764Z,7.80
2019-01-12T15:47:11.505Z,8.83
2019-01-12T15:49:41.150Z,8.13
2019-01-12T15:52:12.081Z,8.33
2019-01-12T15:54:44.666Z,7.63
2019-01-12T15:57:14.507Z,8.47
2019-01-12T15:59:44.341Z,8.47
2019-01-12T16:02:14.385Z,8.67
2019-01-12T16:04:44.066Z,8.63
2019-01-12T16:07:14.002Z,8.37
2019-01-12T16:09:43.786Z,8.27
2019-01-12T16:12:13.633Z,8.20
2019-01-12T16:14:45.872Z,7.17
2019-01-12T16:17:17.050Z,8.17
2019-01-12T16:19:48.029Z,8.17
2019-01-12T16:22:17.788Z,7.97
2019-01-12T16:24:47.591Z,7.80
2019-01-12T16:27:18.810Z,6.80
2019-01-12T16:29:48.551Z,7.03
2019-01-12T16:32:18.287Z,5.37
2019-01-12T16:34:49.387Z,7.97
2019-01-12T16:37:20.663Z,6.27
2019-01-12T16:39:50.318Z,6.30
2019-01-12T16:42:21.718Z,6.17
2019-01-12T16:44:51.420Z,6.27
2019-01-12T16:47:21.101Z,6.23
2019-01-12T16:49:50.847Z,7.07
2019-01-12T16:52:20.563Z,6.93
2019-01-12T16:54:50.371Z,7.17
2019-01-12T16:57:20.164Z,7.03
2019-01-12T16:59:51.116Z,6.40
2019-01-12T17:02:20.984Z,6.43
2019-01-12T17:04:50.955Z,6.43
2019-01-12T17:07:20.965Z,6.17
2019-01-12T17:09:51.023Z,5.80
2019-01-12T17:12:20.823Z,6.33
2019-01-12T17:14:54.365Z,9.13
2019-01-12T17:17:24.277Z,8.00
2019-01-12T17:19:55.128Z,8.33
2019-01-12T17:22:27.366Z,8.07
2019-01-12T17:24:57.371Z,7.27
2019-01-12T17:27:28.448Z,7.13
2019-01-12T17:30:00.992Z,7.63
2019-01-12T17:32:31.664Z,7.70
2019-01-12T17:35:01.700Z,7.77
2019-01-12T17:37:32.947Z,8.40
2019-01-12T17:40:02.990Z,7.57
2019-01-12T17:42:32.961Z,8.07
2019-01-12T17:45:02.803Z,8.63
2019-01-12T17:47:32.874Z,8.70
2019-01-12T17:50:02.651Z,8.93
2019-01-12T17:52:34.908Z,10.10
2019-01-12T17:55:05.422Z,8.70
2019-01-12T17:57:36.387Z,9.20
2019-01-12T18:00:08.345Z,8.10
2019-01-12T18:02:39.251Z,7.97
2019-01-12T18:05:08.978Z,8.07
2019-01-12T18:07:38.813Z,8.50
2019-01-12T18:10:10.034Z,9.10
2019-01-12T18:12:39.906Z,9.43
2019-01-12T18:15:11.730Z,8.90
2019-01-12T18:17:41.600Z,8.93
2019-01-12T18:20:14.047Z,9.17
2019-01-12T18:22:46.415Z,9.83
2019-01-12T18:25:17.391Z,10.33
2019-01-12T18:27:47.056Z,9.93
2019-01-12T18:30:18.742Z,9.43
2019-01-12T18:32:48.523Z,9.20
2019-01-12T18:35:18.253Z,10.47
2019-01-12T18:37:49.627Z,8.00
2019-01-12T18:40:19.336Z,9.73
2019-01-12T18:42:49.010Z,9.60
2019-01-12T18:45:20.005Z,8.30
2019-01-12T18:47:49.713Z,8.53
2019-01-12T18:50:23.006Z,9.90
2019-01-12T18:52:53.184Z,10.00
2019-01-12T18:55:24.008Z,9.13
2019-01-12T18:57:54.999Z,7.53
2019-01-12T19:00:26.109Z,7.27
2019-01-12T19:03:01.425Z,7.67
2019-01-12T19:05:31.189Z,8.27
2019-01-12T19:08:01.012Z,8.47
2019-01-12T19:10:30.697Z,7.77
2019-01-12T19:13:00.407Z,6.37
2019-01-12T19:15:31.215Z,5.90
2019-01-12T19:18:01.024Z,5.43
2019-01-12T19:20:31.246Z,5.10
2019-01-12T19:23:01.178Z,5.20
2019-01-12T19:25:30.939Z,5.70
2019-01-12T19:28:01.097Z,5.93
2019-01-12T19:30:30.887Z,5.40
2019-01-12T19:33:00.718Z,5.70
2019-01-12T19:35:30.468Z,4.93
2019-01-12T19:38:00.483Z,4.27
2019-01-12T19:40:30.404Z,10.43
2019-01-12T19:43:02.722Z,6.30
2019-01-12T19:45:32.380Z,5.20
2019-01-12T19:48:03.312Z,5.50
2019-01-12T19:50:34.271Z,5.63
2019-01-12T19:53:05.128Z,5.00
2019-01-12T19:55:34.818Z,4.70
2019-01-12T19:58:04.470Z,5.10
2019-01-12T20:00:35.182Z,4.80
2019-01-12T20:03:07.375Z,4.97
2019-01-12T20:05:37.222Z,6.00
2019-01-12T20:08:07.076Z,5.87
2019-01-12T20:10:36.736Z,6.03
2019-01-12T20:13:06.555Z,8.20
2019-01-12T20:15:36.262Z,8.97
2019-01-12T20:18:07.445Z,6.30
2019-01-12T20:20:39.769Z,6.17
2019-01-12T20:23:09.572Z,6.10
2019-01-12T20:25:39.255Z,6.73
2019-01-12T20:28:12.513Z,7.77
2019-01-12T20:33:00.727Z,6.27
2019-01-12T20:35:49.979Z,4.53
2019-01-12T20:38:36.693Z,4.77
2019-01-12T20:41:17.482Z,4.70
2019-01-12T20:46:03.489Z,10.60
2019-01-12T20:49:42.343Z,4.77
2019-01-12T20:54:32.927Z,5.40
2019-01-12T20:57:20.151Z,6.10
2019-01-12T21:00:07.034Z,6.30
2019-01-12T21:02:57.705Z,5.93
2019-01-12T21:05:34.612Z,5.73
2019-01-12T21:08:13.206Z,6.83
2019-01-12T21:10:53.840Z,6.93
2019-01-12T21:13:35.556Z,7.67
2019-01-12T21:16:10.497Z,6.43
2019-01-12T21:18:44.328Z,6.73
2019-01-12T21:21:16.401Z,7.10
2019-01-12T21:23:51.861Z,5.83
2019-01-12T21:26:26.083Z,6.57
2019-01-12T21:29:01.266Z,5.40
2019-01-12T21:31:34.341Z,5.40
2019-01-12T21:34:12.013Z,5.20
2019-01-12T21:36:45.473Z,5.77
2019-01-12T21:39:16.447Z,4.30
2019-01-12T21:41:49.629Z,3.93
2019-01-12T21:44:20.671Z,4.10
2019-01-12T21:46:59.873Z,4.00
2019-01-12T21:49:41.258Z,3.77
2019-01-12T21:52:12.810Z,3.70
2019-01-12T21:54:43.410Z,3.93
2019-01-12T21:57:16.664Z,3.83
2019-01-12T21:59:49.090Z,3.97
2019-01-12T22:02:22.082Z,5.27
2019-01-12T22:04:53.054Z,4.87
2019-01-12T22:10:19.348Z,4.57
2019-01-12T22:18:47.734Z,4.93
2019-01-12T22:21:17.845Z,4.80
2019-01-12T22:25:26.818Z,4.83
2019-01-12T22:28:02.389Z,4.90
2019-01-12T22:30:32.158Z,4.83
2019-01-12T22:33:01.800Z,4.73
2019-01-12T22:35:31.495Z,4.27
2019-01-12T22:38:01.229Z,3.70
2019-01-12T22:40:30.889Z,3.23
2019-01-12T22:43:00.555Z,3.77
2019-01-12T22:45:30.212Z,4.00
2019-01-12T22:47:59.898Z,4.13
2019-01-12T22:50:29.571Z,3.80
2019-01-12T22:52:59.287Z,7.87
2019-01-12T22:55:28.974Z,4.17
2019-01-12T22:57:58.604Z,2.73
2019-01-12T23:00:37.218Z,2.37
2019-01-12T23:03:06.882Z,3.03
2019-01-12T23:05:36.507Z,3.27
2019-01-12T23:08:06.151Z,3.00
2019-01-12T23:10:35.780Z,2.50
2019-01-12T23:13:06.618Z,3.43
2019-01-12T23:15:36.269Z,4.40
2019-01-12T23:18:09.633Z,2.87
2019-01-12T23:20:39.247Z,2.70
2019-01-12T23:23:08.873Z,2.80
2019-01-12T23:25:41.117Z,3.80
2019-01-12T23:28:10.740Z,3.17
2019-01-12T23:30:40.373Z,2.97
2019-01-12T23:33:11.276Z,2.70
2019-01-12T23:35:40.938Z,3.27
2019-01-12T23:38:10.638Z,3.07
2019-01-12T23:40:40.326Z,3.10
2019-01-12T23:43:09.967Z,2.80
2019-01-12T23:45:39.591Z,3.20
2019-01-12T23:48:09.247Z,3.37
2019-01-12T23:50:38.893Z,3.23
2019-01-12T23:53:08.529Z,3.30
2019-01-12T23:55:38.187Z,2.90
2019-01-12T23:58:07.821Z,3.37
